sensor_id;sensor_type;location;lat;lon;timestamp;P1;durP1;ratioP1;P2;durP2;ratioP2
4726;SDS011;2377;51.734;8.950;2022-12-18T00:01:22;13.67;;;6.00;;
4726;SDS011;2377;51.734;8.950;2022-12-18T00:03:52;11.97;;;5.60;;
4726;SDS011;2377;51.734;8.950;2022-12-18T00:06:22;11.80;;;6.23;;
4726;SDS011;2377;51.734;8.950;2022-12-18T00:08:51;10.60;;;5.90;;
4726;SDS011;2377;51.734;8.950;2022-12-18T00:11:21;14.57;;;6.87;;
4726;SDS011;2377;51.734;8.950;2022-12-18T00:13:52;9.87;;;5.43;;
4726;SDS011;2377;51.734;8.950;2022-12-18T00:16:23;12.40;;;6.13;;
4726;SDS011;2377;51.734;8.950;2022-12-18T00:18:53;12.10;;;5.93;;
4726;SDS011;2377;51.734;8.950;2022-12-18T00:21:23;11.17;;;5.70;;
4726;SDS011;2377;51.734;8.950;2022-12-18T00:23:50;13.17;;;6.37;;
4726;SDS011;2377;51.734;8.950;2022-12-18T00:26:18;9.90;;;5.77;;
4726;SDS011;2377;51.734;8.950;2022-12-18T00:28:49;8.60;;;5.20;;
4726;SDS011;2377;51.734;8.950;2022-12-18T00:33:58;14.43;;;5.40;;
4726;SDS011;2377;51.734;8.950;2022-12-18T00:36:26;12.47;;;5.80;;
4726;SDS011;2377;51.734;8.950;2022-12-18T00:38:56;10.03;;;5.20;;
4726;SDS011;2377;51.734;8.950;2022-12-18T00:41:25;11.23;;;5.73;;
4726;SDS011;2377;51.734;8.950;2022-12-18T00:44:10;7.97;;;4.83;;
4726;SDS011;2377;51.734;8.950;2022-12-18T00:46:39;11.57;;;5.67;;
4726;SDS011;2377;51.734;8.950;2022-12-18T00:49:07;12.43;;;4.73;;
4726;SDS011;2377;51.734;8.950;2022-12-18T00:51:37;10.67;;;4.00;;
4726;SDS011;2377;51.734;8.950;2022-12-18T00:54:05;10.80;;;5.33;;
4726;SDS011;2377;51.734;8.950;2022-12-18T00:56:32;9.90;;;5.17;;
4726;SDS011;2377;51.734;8.950;2022-12-18T00:59:03;10.77;;;4.77;;
4726;SDS011;2377;51.734;8.950;2022-12-18T01:01:32;10.63;;;4.00;;
4726;SDS011;2377;51.734;8.950;2022-12-18T01:04:00;7.50;;;3.93;;
4726;SDS011;2377;51.734;8.950;2022-12-18T01:06:29;8.90;;;3.93;;
4726;SDS011;2377;51.734;8.950;2022-12-18T01:08:56;11.00;;;5.13;;
4726;SDS011;2377;51.734;8.950;2022-12-18T01:11:23;9.43;;;4.97;;
4726;SDS011;2377;51.734;8.950;2022-12-18T01:13:51;9.10;;;4.67;;
4726;SDS011;2377;51.734;8.950;2022-12-18T01:16:19;9.47;;;3.93;;
4726;SDS011;2377;51.734;8.950;2022-12-18T01:18:50;10.30;;;4.70;;
4726;SDS011;2377;51.734;8.950;2022-12-18T01:21:20;8.77;;;4.70;;
4726;SDS011;2377;51.734;8.950;2022-12-18T01:23:50;10.77;;;5.83;;
4726;SDS011;2377;51.734;8.950;2022-12-18T01:26:19;10.47;;;4.67;;
4726;SDS011;2377;51.734;8.950;2022-12-18T01:28:46;12.60;;;4.83;;
4726;SDS011;2377;51.734;8.950;2022-12-18T01:31:15;8.00;;;4.53;;
4726;SDS011;2377;51.734;8.950;2022-12-18T01:33:49;11.17;;;4.80;;
4726;SDS011;2377;51.734;8.950;2022-12-18T01:36:19;11.80;;;5.30;;
4726;SDS011;2377;51.734;8.950;2022-12-18T01:38:49;10.77;;;5.50;;
4726;SDS011;2377;51.734;8.950;2022-12-18T01:41:19;11.60;;;5.27;;
4726;SDS011;2377;51.734;8.950;2022-12-18T01:43:51;9.77;;;4.80;;
4726;SDS011;2377;51.734;8.950;2022-12-18T01:46:20;8.83;;;4.60;;
4726;SDS011;2377;51.734;8.950;2022-12-18T01:48:55;10.83;;;5.40;;
4726;SDS011;2377;51.734;8.950;2022-12-18T01:51:25;9.67;;;4.80;;
4726;SDS011;2377;51.734;8.950;2022-12-18T01:53:54;10.77;;;5.60;;
4726;SDS011;2377;51.734;8.950;2022-12-18T01:56:23;11.60;;;5.77;;
4726;SDS011;2377;51.734;8.950;2022-12-18T01:58:51;11.10;;;5.80;;
4726;SDS011;2377;51.734;8.950;2022-12-18T02:01:24;12.13;;;6.27;;
4726;SDS011;2377;51.734;8.950;2022-12-18T02:03:52;13.33;;;6.63;;
4726;SDS011;2377;51.734;8.950;2022-12-18T02:06:21;10.97;;;5.87;;
4726;SDS011;2377;51.734;8.950;2022-12-18T02:09:02;13.90;;;6.53;;
4726;SDS011;2377;51.734;8.950;2022-12-18T02:11:42;14.00;;;6.23;;
4726;SDS011;2377;51.734;8.950;2022-12-18T02:14:21;22.03;;;6.90;;
4726;SDS011;2377;51.734;8.950;2022-12-18T02:17:03;12.30;;;6.03;;
4726;SDS011;2377;51.734;8.950;2022-12-18T02:19:45;11.50;;;5.80;;
4726;SDS011;2377;51.734;8.950;2022-12-18T02:22:34;12.50;;;6.20;;
4726;SDS011;2377;51.734;8.950;2022-12-18T02:25:18;12.03;;;5.13;;
4726;SDS011;2377;51.734;8.950;2022-12-18T02:28:06;11.63;;;5.80;;
4726;SDS011;2377;51.734;8.950;2022-12-18T02:30:39;10.43;;;5.43;;
4726;SDS011;2377;51.734;8.950;2022-12-18T02:33:09;14.50;;;6.40;;
4726;SDS011;2377;51.734;8.950;2022-12-18T02:35:39;16.77;;;6.53;;
4726;SDS011;2377;51.734;8.950;2022-12-18T02:38:10;13.13;;;6.43;;
4726;SDS011;2377;51.734;8.950;2022-12-18T02:40:40;14.23;;;6.80;;
4726;SDS011;2377;51.734;8.950;2022-12-18T02:43:12;11.90;;;6.20;;
4726;SDS011;2377;51.734;8.950;2022-12-18T02:45:46;12.87;;;6.80;;
4726;SDS011;2377;51.734;8.950;2022-12-18T02:48:16;19.53;;;7.10;;
4726;SDS011;2377;51.734;8.950;2022-12-18T02:50:49;13.93;;;7.07;;
4726;SDS011;2377;51.734;8.950;2022-12-18T02:53:30;11.70;;;6.40;;
4726;SDS011;2377;51.734;8.950;2022-12-18T02:56:09;14.40;;;6.67;;
4726;SDS011;2377;51.734;8.950;2022-12-18T02:58:45;14.10;;;6.10;;
4726;SDS011;2377;51.734;8.950;2022-12-18T03:01:24;15.37;;;6.63;;
4726;SDS011;2377;51.734;8.950;2022-12-18T03:04:04;18.03;;;6.63;;
4726;SDS011;2377;51.734;8.950;2022-12-18T03:06:39;15.40;;;6.73;;
4726;SDS011;2377;51.734;8.950;2022-12-18T03:09:11;14.37;;;7.00;;
4726;SDS011;2377;51.734;8.950;2022-12-18T03:11:46;17.30;;;7.03;;
4726;SDS011;2377;51.734;8.950;2022-12-18T03:14:39;14.13;;;6.47;;
4726;SDS011;2377;51.734;8.950;2022-12-18T03:17:12;12.30;;;6.37;;
4726;SDS011;2377;51.734;8.950;2022-12-18T03:19:45;12.67;;;6.97;;
4726;SDS011;2377;51.734;8.950;2022-12-18T03:22:15;16.90;;;7.00;;
4726;SDS011;2377;51.734;8.950;2022-12-18T03:24:44;15.13;;;6.90;;
4726;SDS011;2377;51.734;8.950;2022-12-18T03:27:15;12.10;;;6.83;;
4726;SDS011;2377;51.734;8.950;2022-12-18T03:29:51;19.63;;;7.87;;
4726;SDS011;2377;51.734;8.950;2022-12-18T03:32:33;13.63;;;7.03;;
4726;SDS011;2377;51.734;8.950;2022-12-18T03:35:08;17.20;;;7.90;;
4726;SDS011;2377;51.734;8.950;2022-12-18T03:37:42;18.13;;;7.43;;
4726;SDS011;2377;51.734;8.950;2022-12-18T03:40:10;13.57;;;7.37;;
4726;SDS011;2377;51.734;8.950;2022-12-18T03:42:39;15.30;;;7.30;;
4726;SDS011;2377;51.734;8.950;2022-12-18T03:45:20;15.97;;;8.23;;
4726;SDS011;2377;51.734;8.950;2022-12-18T03:47:57;16.13;;;7.80;;
4726;SDS011;2377;51.734;8.950;2022-12-18T03:50:33;15.90;;;7.53;;
4726;SDS011;2377;51.734;8.950;2022-12-18T03:53:11;16.40;;;8.00;;
4726;SDS011;2377;51.734;8.950;2022-12-18T03:55:52;17.47;;;8.83;;
4726;SDS011;2377;51.734;8.950;2022-12-18T03:58:22;16.77;;;9.03;;
4726;SDS011;2377;51.734;8.950;2022-12-18T04:00:55;21.57;;;8.83;;
4726;SDS011;2377;51.734;8.950;2022-12-18T04:03:27;19.83;;;9.43;;
4726;SDS011;2377;51.734;8.950;2022-12-18T04:05:58;18.20;;;8.57;;
4726;SDS011;2377;51.734;8.950;2022-12-18T04:08:27;17.87;;;8.57;;
4726;SDS011;2377;51.734;8.950;2022-12-18T04:10:56;18.60;;;8.67;;
4726;SDS011;2377;51.734;8.950;2022-12-18T04:13:23;19.07;;;8.50;;
4726;SDS011;2377;51.734;8.950;2022-12-18T04:15:56;15.20;;;8.20;;
4726;SDS011;2377;51.734;8.950;2022-12-18T04:18:23;19.67;;;8.57;;
4726;SDS011;2377;51.734;8.950;2022-12-18T04:20:50;16.40;;;8.93;;
4726;SDS011;2377;51.734;8.950;2022-12-18T04:23:17;19.50;;;9.20;;
4726;SDS011;2377;51.734;8.950;2022-12-18T04:25:45;15.37;;;7.47;;
4726;SDS011;2377;51.734;8.950;2022-12-18T04:28:14;19.67;;;8.60;;
4726;SDS011;2377;51.734;8.950;2022-12-18T04:30:41;18.97;;;8.20;;
4726;SDS011;2377;51.734;8.950;2022-12-18T04:33:09;20.73;;;8.67;;
4726;SDS011;2377;51.734;8.950;2022-12-18T04:35:38;16.50;;;8.47;;
4726;SDS011;2377;51.734;8.950;2022-12-18T04:38:05;18.10;;;8.07;;
4726;SDS011;2377;51.734;8.950;2022-12-18T04:40:34;17.80;;;8.00;;
4726;SDS011;2377;51.734;8.950;2022-12-18T04:43:01;15.80;;;7.80;;
4726;SDS011;2377;51.734;8.950;2022-12-18T04:45:29;15.93;;;7.60;;
4726;SDS011;2377;51.734;8.950;2022-12-18T04:47:56;18.50;;;8.00;;
4726;SDS011;2377;51.734;8.950;2022-12-18T04:50:25;14.33;;;7.17;;
4726;SDS011;2377;51.734;8.950;2022-12-18T04:52:53;15.83;;;8.00;;
4726;SDS011;2377;51.734;8.950;2022-12-18T04:55:21;17.33;;;7.83;;
4726;SDS011;2377;51.734;8.950;2022-12-18T04:57:48;14.07;;;7.23;;
4726;SDS011;2377;51.734;8.950;2022-12-18T05:00:15;15.53;;;7.77;;
4726;SDS011;2377;51.734;8.950;2022-12-18T05:02:43;22.67;;;8.53;;
4726;SDS011;2377;51.734;8.950;2022-12-18T05:05:10;14.80;;;7.00;;
4726;SDS011;2377;51.734;8.950;2022-12-18T05:07:38;14.10;;;8.13;;
4726;SDS011;2377;51.734;8.950;2022-12-18T05:10:06;23.20;;;7.90;;
4726;SDS011;2377;51.734;8.950;2022-12-18T05:12:34;16.77;;;6.97;;
4726;SDS011;2377;51.734;8.950;2022-12-18T05:15:22;14.87;;;6.87;;
4726;SDS011;2377;51.734;8.950;2022-12-18T05:17:49;14.03;;;7.00;;
4726;SDS011;2377;51.734;8.950;2022-12-18T05:20:16;19.07;;;8.63;;
4726;SDS011;2377;51.734;8.950;2022-12-18T05:22:46;14.00;;;7.37;;
4726;SDS011;2377;51.734;8.950;2022-12-18T05:25:13;12.30;;;7.00;;
4726;SDS011;2377;51.734;8.950;2022-12-18T05:27:41;15.33;;;6.93;;
4726;SDS011;2377;51.734;8.950;2022-12-18T05:30:08;13.60;;;6.83;;
4726;SDS011;2377;51.734;8.950;2022-12-18T05:32:37;16.43;;;7.27;;
4726;SDS011;2377;51.734;8.950;2022-12-18T05:35:09;13.93;;;6.90;;
4726;SDS011;2377;51.734;8.950;2022-12-18T05:37:37;14.53;;;6.77;;
4726;SDS011;2377;51.734;8.950;2022-12-18T05:40:07;16.33;;;6.90;;
4726;SDS011;2377;51.734;8.950;2022-12-18T05:42:36;16.20;;;6.90;;
4726;SDS011;2377;51.734;8.950;2022-12-18T05:45:03;15.43;;;7.60;;
4726;SDS011;2377;51.734;8.950;2022-12-18T05:47:32;14.80;;;7.90;;
4726;SDS011;2377;51.734;8.950;2022-12-18T05:49:59;13.70;;;6.60;;
4726;SDS011;2377;51.734;8.950;2022-12-18T05:52:26;18.17;;;7.87;;
4726;SDS011;2377;51.734;8.950;2022-12-18T05:54:54;18.20;;;8.47;;
4726;SDS011;2377;51.734;8.950;2022-12-18T05:57:22;17.50;;;8.10;;
4726;SDS011;2377;51.734;8.950;2022-12-18T05:59:49;16.40;;;8.07;;
4726;SDS011;2377;51.734;8.950;2022-12-18T06:02:16;14.00;;;7.40;;
4726;SDS011;2377;51.734;8.950;2022-12-18T06:04:45;17.67;;;7.77;;
4726;SDS011;2377;51.734;8.950;2022-12-18T06:07:13;19.03;;;8.77;;
4726;SDS011;2377;51.734;8.950;2022-12-18T06:09:40;12.83;;;7.17;;
4726;SDS011;2377;51.734;8.950;2022-12-18T06:12:07;19.30;;;8.00;;
4726;SDS011;2377;51.734;8.950;2022-12-18T06:14:37;12.30;;;6.80;;
4726;SDS011;2377;51.734;8.950;2022-12-18T06:17:04;13.40;;;7.13;;
4726;SDS011;2377;51.734;8.950;2022-12-18T06:19:31;13.70;;;7.60;;
4726;SDS011;2377;51.734;8.950;2022-12-18T06:21:58;14.40;;;7.20;;
4726;SDS011;2377;51.734;8.950;2022-12-18T06:24:25;15.50;;;7.40;;
4726;SDS011;2377;51.734;8.950;2022-12-18T06:26:52;15.80;;;7.60;;
4726;SDS011;2377;51.734;8.950;2022-12-18T06:29:20;19.63;;;7.90;;
4726;SDS011;2377;51.734;8.950;2022-12-18T06:34:16;19.33;;;7.57;;
4726;SDS011;2377;51.734;8.950;2022-12-18T06:36:44;17.37;;;7.40;;
4726;SDS011;2377;51.734;8.950;2022-12-18T06:39:11;17.60;;;7.83;;
4726;SDS011;2377;51.734;8.950;2022-12-18T06:41:38;13.50;;;6.60;;
4726;SDS011;2377;51.734;8.950;2022-12-18T06:44:05;15.40;;;7.77;;
4726;SDS011;2377;51.734;8.950;2022-12-18T06:46:32;21.80;;;7.33;;
4726;SDS011;2377;51.734;8.950;2022-12-18T06:48:59;17.70;;;8.13;;
4726;SDS011;2377;51.734;8.950;2022-12-18T06:51:28;13.37;;;7.20;;
4726;SDS011;2377;51.734;8.950;2022-12-18T06:53:56;23.60;;;7.53;;
4726;SDS011;2377;51.734;8.950;2022-12-18T06:56:23;16.90;;;8.50;;
4726;SDS011;2377;51.734;8.950;2022-12-18T06:58:50;19.50;;;9.13;;
4726;SDS011;2377;51.734;8.950;2022-12-18T07:01:18;17.90;;;8.63;;
4726;SDS011;2377;51.734;8.950;2022-12-18T07:03:45;24.70;;;8.50;;
4726;SDS011;2377;51.734;8.950;2022-12-18T07:06:13;13.23;;;7.40;;
4726;SDS011;2377;51.734;8.950;2022-12-18T07:08:44;15.30;;;7.40;;
4726;SDS011;2377;51.734;8.950;2022-12-18T07:11:11;22.13;;;8.93;;
4726;SDS011;2377;51.734;8.950;2022-12-18T07:13:39;17.67;;;8.40;;
4726;SDS011;2377;51.734;8.950;2022-12-18T07:16:07;12.93;;;6.67;;
4726;SDS011;2377;51.734;8.950;2022-12-18T07:18:36;14.90;;;7.10;;
4726;SDS011;2377;51.734;8.950;2022-12-18T07:21:03;18.70;;;9.30;;
4726;SDS011;2377;51.734;8.950;2022-12-18T07:23:31;15.83;;;6.90;;
4726;SDS011;2377;51.734;8.950;2022-12-18T07:26:04;14.90;;;7.23;;
4726;SDS011;2377;51.734;8.950;2022-12-18T07:28:33;15.60;;;7.80;;
4726;SDS011;2377;51.734;8.950;2022-12-18T07:31:02;14.70;;;7.40;;
4726;SDS011;2377;51.734;8.950;2022-12-18T07:33:32;12.37;;;6.20;;
4726;SDS011;2377;51.734;8.950;2022-12-18T07:36:00;13.70;;;6.90;;
4726;SDS011;2377;51.734;8.950;2022-12-18T07:38:28;14.23;;;6.97;;
4726;SDS011;2377;51.734;8.950;2022-12-18T07:40:59;14.93;;;6.90;;
4726;SDS011;2377;51.734;8.950;2022-12-18T07:43:29;15.57;;;7.40;;
4726;SDS011;2377;51.734;8.950;2022-12-18T07:45:56;11.50;;;6.47;;
4726;SDS011;2377;51.734;8.950;2022-12-18T07:48:24;13.63;;;7.73;;
4726;SDS011;2377;51.734;8.950;2022-12-18T07:50:51;12.53;;;6.53;;
4726;SDS011;2377;51.734;8.950;2022-12-18T07:53:18;14.90;;;8.40;;
4726;SDS011;2377;51.734;8.950;2022-12-18T07:55:46;19.87;;;7.33;;
4726;SDS011;2377;51.734;8.950;2022-12-18T07:58:13;12.90;;;7.30;;
4726;SDS011;2377;51.734;8.950;2022-12-18T08:00:42;15.00;;;7.10;;
4726;SDS011;2377;51.734;8.950;2022-12-18T08:03:09;15.40;;;7.20;;
4726;SDS011;2377;51.734;8.950;2022-12-18T08:05:41;16.43;;;8.63;;
4726;SDS011;2377;51.734;8.950;2022-12-18T08:08:09;12.50;;;6.73;;
4726;SDS011;2377;51.734;8.950;2022-12-18T08:10:37;18.90;;;8.13;;
4726;SDS011;2377;51.734;8.950;2022-12-18T08:13:04;16.87;;;7.93;;
4726;SDS011;2377;51.734;8.950;2022-12-18T08:15:32;15.90;;;6.93;;
4726;SDS011;2377;51.734;8.950;2022-12-18T08:18:00;21.57;;;8.80;;
4726;SDS011;2377;51.734;8.950;2022-12-18T08:20:27;17.93;;;8.27;;
4726;SDS011;2377;51.734;8.950;2022-12-18T08:22:54;19.13;;;7.80;;
4726;SDS011;2377;51.734;8.950;2022-12-18T08:25:23;12.93;;;6.47;;
4726;SDS011;2377;51.734;8.950;2022-12-18T08:27:50;17.57;;;8.47;;
4726;SDS011;2377;51.734;8.950;2022-12-18T08:30:17;13.70;;;7.30;;
4726;SDS011;2377;51.734;8.950;2022-12-18T08:32:44;16.43;;;8.13;;
4726;SDS011;2377;51.734;8.950;2022-12-18T08:35:13;11.50;;;6.60;;
4726;SDS011;2377;51.734;8.950;2022-12-18T08:37:40;15.60;;;7.37;;
4726;SDS011;2377;51.734;8.950;2022-12-18T08:40:08;16.20;;;8.80;;
4726;SDS011;2377;51.734;8.950;2022-12-18T08:42:37;20.63;;;8.60;;
4726;SDS011;2377;51.734;8.950;2022-12-18T08:45:22;14.43;;;6.50;;
4726;SDS011;2377;51.734;8.950;2022-12-18T08:47:49;14.40;;;8.40;;
4726;SDS011;2377;51.734;8.950;2022-12-18T08:50:18;15.40;;;7.50;;
4726;SDS011;2377;51.734;8.950;2022-12-18T08:52:46;16.80;;;8.00;;
4726;SDS011;2377;51.734;8.950;2022-12-18T08:55:13;18.07;;;9.77;;
4726;SDS011;2377;51.734;8.950;2022-12-18T08:57:40;13.00;;;6.93;;
4726;SDS011;2377;51.734;8.950;2022-12-18T09:00:08;18.13;;;8.10;;
4726;SDS011;2377;51.734;8.950;2022-12-18T09:02:38;15.00;;;7.73;;
4726;SDS011;2377;51.734;8.950;2022-12-18T09:05:05;17.10;;;8.10;;
4726;SDS011;2377;51.734;8.950;2022-12-18T09:07:34;15.93;;;7.70;;
4726;SDS011;2377;51.734;8.950;2022-12-18T09:10:02;16.07;;;8.07;;
4726;SDS011;2377;51.734;8.950;2022-12-18T09:12:31;17.13;;;9.27;;
4726;SDS011;2377;51.734;8.950;2022-12-18T09:14:58;17.27;;;8.30;;
4726;SDS011;2377;51.734;8.950;2022-12-18T09:17:26;15.60;;;7.10;;
4726;SDS011;2377;51.734;8.950;2022-12-18T09:19:53;14.57;;;7.40;;
4726;SDS011;2377;51.734;8.950;2022-12-18T09:22:20;10.50;;;6.13;;
4726;SDS011;2377;51.734;8.950;2022-12-18T09:24:49;11.70;;;6.30;;
4726;SDS011;2377;51.734;8.950;2022-12-18T09:27:16;16.63;;;7.27;;
4726;SDS011;2377;51.734;8.950;2022-12-18T09:29:44;11.20;;;6.47;;
4726;SDS011;2377;51.734;8.950;2022-12-18T09:32:11;13.40;;;6.70;;
4726;SDS011;2377;51.734;8.950;2022-12-18T09:34:38;12.67;;;6.63;;
4726;SDS011;2377;51.734;8.950;2022-12-18T09:37:05;13.80;;;6.07;;
4726;SDS011;2377;51.734;8.950;2022-12-18T09:39:33;16.83;;;7.20;;
4726;SDS011;2377;51.734;8.950;2022-12-18T09:42:01;13.80;;;6.10;;
4726;SDS011;2377;51.734;8.950;2022-12-18T09:44:29;15.50;;;6.30;;
4726;SDS011;2377;51.734;8.950;2022-12-18T09:47:05;12.43;;;6.47;;
4726;SDS011;2377;51.734;8.950;2022-12-18T09:49:40;14.83;;;7.43;;
4726;SDS011;2377;51.734;8.950;2022-12-18T09:52:12;14.87;;;7.40;;
4726;SDS011;2377;51.734;8.950;2022-12-18T09:54:49;13.77;;;6.43;;
4726;SDS011;2377;51.734;8.950;2022-12-18T09:57:23;16.30;;;7.73;;
4726;SDS011;2377;51.734;8.950;2022-12-18T09:59:53;16.57;;;8.07;;
4726;SDS011;2377;51.734;8.950;2022-12-18T10:02:25;20.90;;;7.67;;
4726;SDS011;2377;51.734;8.950;2022-12-18T10:05:02;13.87;;;7.87;;
4726;SDS011;2377;51.734;8.950;2022-12-18T10:07:38;13.50;;;7.10;;
4726;SDS011;2377;51.734;8.950;2022-12-18T10:10:22;16.03;;;7.43;;
4726;SDS011;2377;51.734;8.950;2022-12-18T10:13:07;16.10;;;6.70;;
4726;SDS011;2377;51.734;8.950;2022-12-18T10:15:49;11.53;;;6.23;;
4726;SDS011;2377;51.734;8.950;2022-12-18T10:18:33;13.37;;;6.50;;
4726;SDS011;2377;51.734;8.950;2022-12-18T10:21:21;14.80;;;6.73;;
4726;SDS011;2377;51.734;8.950;2022-12-18T10:23:59;19.77;;;6.93;;
4726;SDS011;2377;51.734;8.950;2022-12-18T10:26:52;13.50;;;7.40;;
4726;SDS011;2377;51.734;8.950;2022-12-18T10:29:28;11.33;;;6.20;;
4726;SDS011;2377;51.734;8.950;2022-12-18T10:31:55;11.97;;;6.43;;
4726;SDS011;2377;51.734;8.950;2022-12-18T10:34:23;11.57;;;6.30;;
4726;SDS011;2377;51.734;8.950;2022-12-18T10:36:50;11.40;;;6.03;;
4726;SDS011;2377;51.734;8.950;2022-12-18T10:39:18;10.60;;;5.70;;
4726;SDS011;2377;51.734;8.950;2022-12-18T10:41:48;13.30;;;5.93;;
4726;SDS011;2377;51.734;8.950;2022-12-18T10:44:16;10.70;;;5.80;;
4726;SDS011;2377;51.734;8.950;2022-12-18T10:46:49;17.60;;;6.13;;
4726;SDS011;2377;51.734;8.950;2022-12-18T10:49:22;11.30;;;6.07;;
4726;SDS011;2377;51.734;8.950;2022-12-18T10:52:03;14.00;;;6.43;;
4726;SDS011;2377;51.734;8.950;2022-12-18T10:54:45;10.47;;;6.13;;
4726;SDS011;2377;51.734;8.950;2022-12-18T10:57:17;12.97;;;5.97;;
4726;SDS011;2377;51.734;8.950;2022-12-18T10:59:58;11.17;;;5.70;;
4726;SDS011;2377;51.734;8.950;2022-12-18T11:02:47;10.70;;;6.20;;
4726;SDS011;2377;51.734;8.950;2022-12-18T11:05:22;14.60;;;6.40;;
4726;SDS011;2377;51.734;8.950;2022-12-18T11:07:56;11.93;;;6.00;;
4726;SDS011;2377;51.734;8.950;2022-12-18T11:10:28;11.13;;;5.70;;
4726;SDS011;2377;51.734;8.950;2022-12-18T11:13:10;12.80;;;6.30;;
4726;SDS011;2377;51.734;8.950;2022-12-18T11:15:43;16.50;;;8.03;;
4726;SDS011;2377;51.734;8.950;2022-12-18T11:18:17;16.67;;;7.40;;
4726;SDS011;2377;51.734;8.950;2022-12-18T11:20:52;11.70;;;6.60;;
4726;SDS011;2377;51.734;8.950;2022-12-18T11:23:23;14.37;;;7.90;;
4726;SDS011;2377;51.734;8.950;2022-12-18T11:25:52;13.33;;;7.10;;
4726;SDS011;2377;51.734;8.950;2022-12-18T11:28:27;12.57;;;6.60;;
4726;SDS011;2377;51.734;8.950;2022-12-18T11:31:09;12.73;;;7.03;;
4726;SDS011;2377;51.734;8.950;2022-12-18T11:33:56;17.20;;;7.60;;
4726;SDS011;2377;51.734;8.950;2022-12-18T11:36:32;11.87;;;6.80;;
4726;SDS011;2377;51.734;8.950;2022-12-18T11:39:07;16.50;;;7.23;;
4726;SDS011;2377;51.734;8.950;2022-12-18T11:41:47;16.57;;;7.30;;
4726;SDS011;2377;51.734;8.950;2022-12-18T11:44:38;12.83;;;6.53;;
4726;SDS011;2377;51.734;8.950;2022-12-18T11:47:19;17.00;;;7.27;;
4726;SDS011;2377;51.734;8.950;2022-12-18T11:50:00;13.50;;;7.27;;
4726;SDS011;2377;51.734;8.950;2022-12-18T11:52:31;14.33;;;6.77;;
4726;SDS011;2377;51.734;8.950;2022-12-18T11:55:05;12.00;;;6.67;;
4726;SDS011;2377;51.734;8.950;2022-12-18T11:57:41;18.00;;;7.70;;
4726;SDS011;2377;51.734;8.950;2022-12-18T12:00:21;17.53;;;7.63;;
4726;SDS011;2377;51.734;8.950;2022-12-18T12:02:58;10.97;;;6.33;;
4726;SDS011;2377;51.734;8.950;2022-12-18T12:05:50;15.93;;;7.13;;
4726;SDS011;2377;51.734;8.950;2022-12-18T12:08:36;13.30;;;7.30;;
4726;SDS011;2377;51.734;8.950;2022-12-18T12:11:22;13.90;;;7.30;;
4726;SDS011;2377;51.734;8.950;2022-12-18T12:14:12;19.03;;;8.30;;
4726;SDS011;2377;51.734;8.950;2022-12-18T12:17:03;14.70;;;7.27;;
4726;SDS011;2377;51.734;8.950;2022-12-18T12:19:39;14.57;;;7.57;;
4726;SDS011;2377;51.734;8.950;2022-12-18T12:22:23;20.73;;;8.70;;
4726;SDS011;2377;51.734;8.950;2022-12-18T12:25:13;13.37;;;8.27;;
4726;SDS011;2377;51.734;8.950;2022-12-18T12:28:03;17.90;;;7.87;;
4726;SDS011;2377;51.734;8.950;2022-12-18T12:30:48;15.70;;;7.60;;
4726;SDS011;2377;51.734;8.950;2022-12-18T12:33:28;15.50;;;7.60;;
4726;SDS011;2377;51.734;8.950;2022-12-18T12:36:10;16.73;;;7.60;;
4726;SDS011;2377;51.734;8.950;2022-12-18T12:38:49;15.37;;;7.03;;
4726;SDS011;2377;51.734;8.950;2022-12-18T12:41:22;14.13;;;7.03;;
4726;SDS011;2377;51.734;8.950;2022-12-18T12:44:14;16.40;;;8.10;;
4726;SDS011;2377;51.734;8.950;2022-12-18T12:46:46;14.93;;;7.97;;
4726;SDS011;2377;51.734;8.950;2022-12-18T12:49:18;13.73;;;6.83;;
4726;SDS011;2377;51.734;8.950;2022-12-18T12:51:56;14.37;;;6.70;;
4726;SDS011;2377;51.734;8.950;2022-12-18T12:54:32;14.30;;;7.63;;
4726;SDS011;2377;51.734;8.950;2022-12-18T12:57:02;13.10;;;6.93;;
4726;SDS011;2377;51.734;8.950;2022-12-18T12:59:40;12.27;;;7.17;;
4726;SDS011;2377;51.734;8.950;2022-12-18T13:02:22;13.83;;;7.03;;
4726;SDS011;2377;51.734;8.950;2022-12-18T13:05:01;12.90;;;7.33;;
4726;SDS011;2377;51.734;8.950;2022-12-18T13:07:47;15.20;;;7.20;;
4726;SDS011;2377;51.734;8.950;2022-12-18T13:10:25;13.67;;;7.17;;
4726;SDS011;2377;51.734;8.950;2022-12-18T13:12:59;16.53;;;7.30;;
4726;SDS011;2377;51.734;8.950;2022-12-18T13:15:30;12.70;;;6.90;;
4726;SDS011;2377;51.734;8.950;2022-12-18T13:18:04;13.13;;;6.00;;
4726;SDS011;2377;51.734;8.950;2022-12-18T13:21:01;11.30;;;6.20;;
4726;SDS011;2377;51.734;8.950;2022-12-18T13:23:40;13.57;;;6.77;;
4726;SDS011;2377;51.734;8.950;2022-12-18T13:29:03;13.47;;;6.93;;
4726;SDS011;2377;51.734;8.950;2022-12-18T13:34:46;11.37;;;6.30;;
4726;SDS011;2377;51.734;8.950;2022-12-18T13:43:28;12.73;;;6.73;;
4726;SDS011;2377;51.734;8.950;2022-12-18T13:46:21;15.77;;;6.40;;
4726;SDS011;2377;51.734;8.950;2022-12-18T13:48:59;14.93;;;7.80;;
4726;SDS011;2377;51.734;8.950;2022-12-18T13:51:30;11.83;;;6.60;;
4726;SDS011;2377;51.734;8.950;2022-12-18T13:54:00;12.33;;;6.13;;
4726;SDS011;2377;51.734;8.950;2022-12-18T13:56:42;11.73;;;6.80;;
4726;SDS011;2377;51.734;8.950;2022-12-18T13:59:14;13.00;;;6.63;;
4726;SDS011;2377;51.734;8.950;2022-12-18T14:01:46;13.83;;;7.57;;
4726;SDS011;2377;51.734;8.950;2022-12-18T14:04:19;15.67;;;7.50;;
4726;SDS011;2377;51.734;8.950;2022-12-18T14:06:52;16.53;;;8.43;;
4726;SDS011;2377;51.734;8.950;2022-12-18T14:09:25;17.47;;;8.00;;
4726;SDS011;2377;51.734;8.950;2022-12-18T14:11:56;16.13;;;8.20;;
4726;SDS011;2377;51.734;8.950;2022-12-18T14:14:39;14.90;;;7.77;;
4726;SDS011;2377;51.734;8.950;2022-12-18T14:17:10;13.33;;;7.53;;
4726;SDS011;2377;51.734;8.950;2022-12-18T14:19:41;14.50;;;8.20;;
4726;SDS011;2377;51.734;8.950;2022-12-18T14:22:15;17.63;;;8.40;;
4726;SDS011;2377;51.734;8.950;2022-12-18T14:24:46;22.93;;;8.90;;
4726;SDS011;2377;51.734;8.950;2022-12-18T14:27:30;15.43;;;8.27;;
4726;SDS011;2377;51.734;8.950;2022-12-18T14:29:59;15.10;;;7.97;;
4726;SDS011;2377;51.734;8.950;2022-12-18T14:32:26;17.60;;;8.83;;
4726;SDS011;2377;51.734;8.950;2022-12-18T14:34:54;15.40;;;8.30;;
4726;SDS011;2377;51.734;8.950;2022-12-18T14:37:22;15.77;;;8.00;;
4726;SDS011;2377;51.734;8.950;2022-12-18T14:39:52;11.23;;;7.03;;
4726;SDS011;2377;51.734;8.950;2022-12-18T14:42:22;15.60;;;8.03;;
4726;SDS011;2377;51.734;8.950;2022-12-18T14:48:12;17.90;;;8.30;;
4726;SDS011;2377;51.734;8.950;2022-12-18T14:50:43;15.30;;;7.77;;
4726;SDS011;2377;51.734;8.950;2022-12-18T14:53:22;16.20;;;8.40;;
4726;SDS011;2377;51.734;8.950;2022-12-18T14:55:59;18.60;;;9.13;;
4726;SDS011;2377;51.734;8.950;2022-12-18T14:58:27;14.93;;;8.30;;
4726;SDS011;2377;51.734;8.950;2022-12-18T15:00:55;14.73;;;7.90;;
4726;SDS011;2377;51.734;8.950;2022-12-18T15:03:24;14.33;;;8.10;;
4726;SDS011;2377;51.734;8.950;2022-12-18T15:05:52;17.77;;;8.43;;
4726;SDS011;2377;51.734;8.950;2022-12-18T15:08:28;16.10;;;7.73;;
4726;SDS011;2377;51.734;8.950;2022-12-18T15:11:01;14.53;;;7.40;;
4726;SDS011;2377;51.734;8.950;2022-12-18T15:13:28;16.17;;;8.53;;
4726;SDS011;2377;51.734;8.950;2022-12-18T15:15:56;13.50;;;7.70;;
4726;SDS011;2377;51.734;8.950;2022-12-18T15:18:32;13.70;;;7.43;;
4726;SDS011;2377;51.734;8.950;2022-12-18T15:21:08;19.57;;;7.33;;
4726;SDS011;2377;51.734;8.950;2022-12-18T15:23:45;19.73;;;8.27;;
4726;SDS011;2377;51.734;8.950;2022-12-18T15:26:16;18.20;;;8.77;;
4726;SDS011;2377;51.734;8.950;2022-12-18T15:28:47;15.90;;;8.50;;
4726;SDS011;2377;51.734;8.950;2022-12-18T15:31:23;15.87;;;8.63;;
4726;SDS011;2377;51.734;8.950;2022-12-18T15:34:04;17.03;;;8.77;;
4726;SDS011;2377;51.734;8.950;2022-12-18T15:36:47;17.40;;;8.47;;
4726;SDS011;2377;51.734;8.950;2022-12-18T15:39:16;18.57;;;8.23;;
4726;SDS011;2377;51.734;8.950;2022-12-18T15:41:44;19.27;;;9.17;;
4726;SDS011;2377;51.734;8.950;2022-12-18T15:44:25;17.60;;;9.60;;
4726;SDS011;2377;51.734;8.950;2022-12-18T15:46:54;19.50;;;9.40;;
4726;SDS011;2377;51.734;8.950;2022-12-18T15:49:23;15.17;;;8.40;;
4726;SDS011;2377;51.734;8.950;2022-12-18T15:51:51;17.53;;;8.83;;
4726;SDS011;2377;51.734;8.950;2022-12-18T15:54:21;18.33;;;9.30;;